createdAt,value
2018-05-31T00:02:19.348Z,65.32
2018-05-31T00:04:47.666Z,64.69
2018-05-31T00:07:16.038Z,65.21
2018-05-31T00:09:44.358Z,65.02
2018-05-31T00:12:12.661Z,64.79
2018-05-31T00:14:41.297Z,64.94
2018-05-31T00:17:09.646Z,65.21
2018-05-31T00:19:37.961Z,65.51
2018-05-31T00:22:06.681Z,65.62
2018-05-31T00:24:35.026Z,65.97
2018-05-31T00:27:03.341Z,65.96
2018-05-31T00:29:31.742Z,66.21
2018-05-31T00:32:00.143Z,66.29
2018-05-31T00:34:28.709Z,66.35
2018-05-31T00:36:57.059Z,66.26
2018-05-31T00:39:25.417Z,66.30
2018-05-31T00:41:53.755Z,66.39
2018-05-31T00:44:22.535Z,66.45
2018-05-31T00:46:50.857Z,66.60
2018-05-31T00:49:19.187Z,67.11
2018-05-31T00:51:47.897Z,67.36
2018-05-31T00:54:16.233Z,67.73
2018-05-31T00:56:44.651Z,67.54
2018-05-31T00:59:13.192Z,67.66
2018-05-31T01:01:41.501Z,67.68
2018-05-31T01:04:09.801Z,68.03
2018-05-31T01:06:38.232Z,68.55
2018-05-31T01:09:06.536Z,68.35
2018-05-31T01:11:34.910Z,68.32
2018-05-31T01:14:03.256Z,68.40
2018-05-31T01:16:31.562Z,68.50
2018-05-31T01:18:59.863Z,68.58
2018-05-31T01:21:28.216Z,68.66
2018-05-31T01:23:56.546Z,68.91
2018-05-31T01:26:24.858Z,69.03
2018-05-31T01:28:53.228Z,69.08
2018-05-31T01:31:21.596Z,69.44
2018-05-31T01:33:49.922Z,69.85
2018-05-31T01:36:19.371Z,70.03
2018-05-31T01:38:47.724Z,70.31
2018-05-31T01:41:16.076Z,70.29
2018-05-31T01:43:44.646Z,70.41
2018-05-31T01:46:12.956Z,70.64
2018-05-31T01:48:41.258Z,70.99
2018-05-31T01:51:09.592Z,71.31
2018-05-31T01:53:37.917Z,71.50
2018-05-31T01:56:06.239Z,71.51
2018-05-31T01:58:34.646Z,71.55
2018-05-31T02:01:02.971Z,71.81
2018-05-31T02:03:31.293Z,71.82
2018-05-31T02:05:59.741Z,71.94
2018-05-31T02:08:28.057Z,71.84
2018-05-31T02:10:56.501Z,71.93
2018-05-31T02:13:25.838Z,72.12
2018-05-31T02:15:54.179Z,72.06
2018-05-31T02:18:22.496Z,72.19
2018-05-31T02:20:50.853Z,72.56
2018-05-31T02:23:19.212Z,72.72
2018-05-31T02:25:47.559Z,73.20
2018-05-31T02:28:15.909Z,73.78
2018-05-31T02:30:44.273Z,73.51
2018-05-31T02:33:12.618Z,73.97
2018-05-31T02:35:40.945Z,73.86
2018-05-31T02:38:09.272Z,73.99
2018-05-31T02:40:37.591Z,74.28
2018-05-31T02:43:05.937Z,74.52
2018-05-31T02:45:34.263Z,74.13
2018-05-31T02:48:02.589Z,74.27
2018-05-31T02:50:31.103Z,74.59
2018-05-31T02:52:59.422Z,74.70
2018-05-31T02:55:27.784Z,74.77
2018-05-31T02:57:56.406Z,74.87
2018-05-31T03:00:24.992Z,74.88
2018-05-31T03:02:53.317Z,75.33
2018-05-31T03:05:21.928Z,75.35
2018-05-31T03:07:50.278Z,75.66
2018-05-31T03:10:18.669Z,76.17
2018-05-31T03:12:47.124Z,76.06
2018-05-31T03:15:15.464Z,76.35
2018-05-31T03:17:43.836Z,76.56
2018-05-31T03:20:12.178Z,76.74
2018-05-31T03:22:40.503Z,76.89
2018-05-31T03:25:08.825Z,77.54
2018-05-31T03:27:37.172Z,77.76
2018-05-31T03:30:05.511Z,77.59
2018-05-31T03:32:33.843Z,77.42
2018-05-31T03:35:02.205Z,78.20
2018-05-31T03:37:30.607Z,78.08
2018-05-31T03:39:59.657Z,78.31
2018-05-31T03:42:28.040Z,78.09
2018-05-31T03:44:56.423Z,78.46
2018-05-31T03:47:24.910Z,77.92
2018-05-31T03:49:53.439Z,78.55
2018-05-31T03:52:21.750Z,78.42
2018-05-31T03:54:50.161Z,78.78
2018-05-31T03:57:18.752Z,78.77
2018-05-31T03:59:47.116Z,78.56
2018-05-31T04:02:15.431Z,78.76
2018-05-31T04:04:43.946Z,78.47
2018-05-31T04:07:12.265Z,78.41
2018-05-31T04:09:40.620Z,78.75
2018-05-31T04:12:09.057Z,79.00
2018-05-31T04:14:37.378Z,78.88
2018-05-31T04:17:05.706Z,78.98
2018-05-31T04:19:34.041Z,79.09
2018-05-31T04:22:02.463Z,79.07
2018-05-31T04:24:30.809Z,79.02
2018-05-31T04:26:59.497Z,78.82
2018-05-31T04:29:27.892Z,78.85
2018-05-31T04:31:56.209Z,79.03
2018-05-31T04:34:24.817Z,79.02
2018-05-31T04:36:53.117Z,78.83
2018-05-31T04:39:21.481Z,78.21
2018-05-31T04:41:49.863Z,78.34
2018-05-31T04:44:18.242Z,78.16
2018-05-31T04:46:46.630Z,78.42
2018-05-31T04:49:15.010Z,78.27
2018-05-31T04:51:43.361Z,78.29
2018-05-31T04:54:11.670Z,77.96
2018-05-31T04:56:40.030Z,78.20
2018-05-31T04:59:08.389Z,77.51
2018-05-31T05:01:36.709Z,77.00
2018-05-31T05:04:05.179Z,77.00
2018-05-31T05:06:33.676Z,77.26
2018-05-31T05:09:02.125Z,77.47
2018-05-31T05:11:30.443Z,77.22
2018-05-31T05:13:58.763Z,77.29
2018-05-31T05:16:27.081Z,77.41
2018-05-31T05:18:55.465Z,77.24
2018-05-31T05:21:23.793Z,77.05
2018-05-31T05:23:52.154Z,76.83
2018-05-31T05:26:20.545Z,76.25
2018-05-31T05:28:48.905Z,75.52
2018-05-31T05:31:17.259Z,75.77
2018-05-31T05:33:45.919Z,75.08
2018-05-31T05:36:14.284Z,74.82
2018-05-31T05:38:42.603Z,74.57
2018-05-31T05:41:11.058Z,73.98
2018-05-31T05:43:39.382Z,73.70
2018-05-31T05:46:07.736Z,73.85
2018-05-31T05:48:36.064Z,74.19
2018-05-31T05:51:05.340Z,73.72
2018-05-31T05:53:33.620Z,73.30
2018-05-31T05:56:02.214Z,73.42
2018-05-31T05:58:30.629Z,72.78
2018-05-31T06:00:58.926Z,73.17
2018-05-31T06:03:27.285Z,73.19
2018-05-31T06:05:55.727Z,73.06
2018-05-31T06:08:24.043Z,72.48
2018-05-31T06:10:52.419Z,72.24
2018-05-31T06:13:20.798Z,72.18
2018-05-31T06:15:49.145Z,71.79
2018-05-31T06:18:17.515Z,71.09
2018-05-31T06:20:45.835Z,70.58
2018-05-31T06:23:14.165Z,69.99
2018-05-31T06:25:42.943Z,69.37
2018-05-31T06:28:11.274Z,69.07
2018-05-31T06:30:44.641Z,69.49
2018-05-31T06:33:12.970Z,70.49
2018-05-31T06:35:41.278Z,70.40
2018-05-31T06:38:09.633Z,70.95
2018-05-31T06:40:38.013Z,70.66
2018-05-31T06:43:06.360Z,70.24
2018-05-31T06:45:34.847Z,69.20
2018-05-31T06:48:03.158Z,68.78
2018-05-31T06:50:31.500Z,68.15
2018-05-31T06:53:00.157Z,67.84
2018-05-31T06:55:28.495Z,66.92
2018-05-31T06:57:56.837Z,66.27
2018-05-31T07:00:25.195Z,65.73
2018-05-31T07:02:53.601Z,65.92
2018-05-31T07:05:21.987Z,65.48
2018-05-31T07:07:50.430Z,65.82
2018-05-31T07:10:18.811Z,65.52
2018-05-31T07:12:47.189Z,65.25
2018-05-31T07:15:17.446Z,67.17
2018-05-31T07:17:45.843Z,66.89
2018-05-31T07:20:14.149Z,66.75
2018-05-31T07:22:42.527Z,66.89
2018-05-31T07:25:10.849Z,66.25
2018-05-31T07:27:39.170Z,65.63
2018-05-31T07:30:07.860Z,64.84
2018-05-31T07:32:36.246Z,63.92
2018-05-31T07:35:04.554Z,62.88
2018-05-31T07:37:33.194Z,63.08
2018-05-31T07:40:01.650Z,63.52
2018-05-31T07:42:29.971Z,63.50
2018-05-31T07:44:58.316Z,62.75
2018-05-31T07:47:26.622Z,63.08
2018-05-31T07:49:54.969Z,62.33
2018-05-31T07:52:24.583Z,61.86
2018-05-31T07:54:52.997Z,61.77
2018-05-31T07:57:21.342Z,62.18
2018-05-31T07:59:49.717Z,62.49
2018-05-31T08:02:18.307Z,61.31
2018-05-31T08:04:46.709Z,61.17
2018-05-31T08:07:15.305Z,60.74
2018-05-31T08:09:44.592Z,59.76
2018-05-31T08:12:12.932Z,59.71
2018-05-31T08:14:41.357Z,59.18
2018-05-31T08:17:10.750Z,58.86
2018-05-31T08:19:39.075Z,60.16
2018-05-31T08:22:07.429Z,60.51
2018-05-31T08:24:35.754Z,59.58
2018-05-31T08:27:04.176Z,59.00
2018-05-31T08:29:33.039Z,58.87
2018-05-31T08:32:01.356Z,57.87
2018-05-31T08:34:29.677Z,57.99
2018-05-31T08:36:58.239Z,57.97
2018-05-31T08:39:26.537Z,58.13
2018-05-31T08:41:54.908Z,58.00
2018-05-31T08:44:23.399Z,57.20
2018-05-31T08:46:51.713Z,56.85
2018-05-31T08:49:20.099Z,56.82
2018-05-31T08:51:48.545Z,57.08
2018-05-31T08:54:16.882Z,56.37
2018-05-31T08:56:45.209Z,55.81
2018-05-31T08:59:13.569Z,56.01
2018-05-31T09:01:41.903Z,56.10
2018-05-31T09:04:12.180Z,56.03
2018-05-31T09:06:40.526Z,55.81
2018-05-31T09:09:08.848Z,56.35
2018-05-31T09:11:37.187Z,56.33
2018-05-31T09:14:06.001Z,55.52
2018-05-31T09:16:34.346Z,55.16
2018-05-31T09:19:02.666Z,54.82
2018-05-31T09:21:31.015Z,53.75
2018-05-31T09:23:59.338Z,52.91
2018-05-31T09:26:28.213Z,52.47
2018-05-31T09:28:56.911Z,52.71
2018-05-31T09:31:25.376Z,52.34
2018-05-31T09:33:53.904Z,52.25
2018-05-31T09:36:22.235Z,52.40
2018-05-31T09:38:50.836Z,51.92
2018-05-31T09:41:19.173Z,49.43
2018-05-31T09:43:47.547Z,47.71
2018-05-31T09:46:15.926Z,46.06
2018-05-31T09:48:44.302Z,45.34
2018-05-31T09:51:12.871Z,44.09
2018-05-31T09:53:41.194Z,44.39
2018-05-31T09:56:09.567Z,46.48
2018-05-31T09:58:37.935Z,47.02
2018-05-31T10:01:06.275Z,46.21
2018-05-31T10:03:34.585Z,45.88
2018-05-31T10:06:03.749Z,44.97
2018-05-31T10:08:32.092Z,42.74
2018-05-31T10:11:00.435Z,42.25
2018-05-31T10:13:29.777Z,41.62
2018-05-31T10:15:58.164Z,41.89
2018-05-31T10:18:27.830Z,41.40
2018-05-31T10:20:56.296Z,41.69
2018-05-31T10:23:24.636Z,40.75
2018-05-31T10:25:52.987Z,41.62
2018-05-31T10:28:21.443Z,41.01
2018-05-31T10:30:49.848Z,43.59
2018-05-31T10:33:18.223Z,42.07
2018-05-31T10:35:47.373Z,41.17
2018-05-31T10:38:15.846Z,40.39
2018-05-31T10:40:44.270Z,39.46
2018-05-31T10:43:12.632Z,41.34
2018-05-31T10:45:40.946Z,40.65
2018-05-31T10:48:09.266Z,40.83
2018-05-31T10:50:39.016Z,39.85
2018-05-31T10:53:07.373Z,37.33
2018-05-31T10:55:35.716Z,37.84
2018-05-31T10:58:04.158Z,38.11
2018-05-31T11:00:32.511Z,38.57
2018-05-31T11:03:00.851Z,38.85
2018-05-31T11:05:29.413Z,38.30
2018-05-31T11:07:57.778Z,38.68
2018-05-31T11:10:26.104Z,39.04
2018-05-31T11:12:55.078Z,39.32
2018-05-31T11:15:23.690Z,39.69
2018-05-31T11:17:52.035Z,37.75
2018-05-31T11:20:20.814Z,38.05
2018-05-31T11:22:49.189Z,37.69
2018-05-31T11:25:17.523Z,36.33
2018-05-31T11:27:46.118Z,36.58
2018-05-31T11:30:14.487Z,36.64
2018-05-31T11:32:42.788Z,37.54
2018-05-31T11:35:11.479Z,38.31
2018-05-31T11:37:39.810Z,38.87
2018-05-31T11:40:08.134Z,37.87
2018-05-31T11:42:36.472Z,37.42
2018-05-31T11:45:04.811Z,37.72
2018-05-31T11:47:33.117Z,37.67
2018-05-31T11:50:01.475Z,38.23
2018-05-31T11:52:29.773Z,38.80
2018-05-31T11:54:58.676Z,39.35
2018-05-31T11:57:27.561Z,40.24
2018-05-31T11:59:55.932Z,40.45
2018-05-31T12:02:24.284Z,41.42
2018-05-31T12:04:53.041Z,41.16
2018-05-31T12:07:21.442Z,41.32
2018-05-31T12:09:49.835Z,40.75
2018-05-31T12:12:18.872Z,40.96
2018-05-31T12:14:47.243Z,40.91
2018-05-31T12:17:15.622Z,42.53
2018-05-31T12:19:44.156Z,43.15
2018-05-31T12:22:12.492Z,41.23
2018-05-31T12:24:40.811Z,42.50
2018-05-31T12:27:09.157Z,40.71
2018-05-31T12:29:37.467Z,41.44
2018-05-31T12:32:05.795Z,40.75
2018-05-31T12:34:34.127Z,40.27
2018-05-31T12:37:02.458Z,40.67
2018-05-31T12:39:30.776Z,42.54
2018-05-31T12:41:59.909Z,42.13
2018-05-31T12:44:28.312Z,41.73
2018-05-31T12:46:56.636Z,41.91
2018-05-31T12:49:25.031Z,42.99
2018-05-31T12:51:53.389Z,42.55
2018-05-31T12:54:21.673Z,41.20
2018-05-31T12:56:50.289Z,41.94
2018-05-31T12:59:18.968Z,41.00
2018-05-31T13:01:47.481Z,40.45
2018-05-31T13:04:15.962Z,40.40
2018-05-31T13:06:45.037Z,39.55
2018-05-31T13:09:13.417Z,40.78
2018-05-31T13:11:41.859Z,40.53
2018-05-31T13:14:10.168Z,40.27
2018-05-31T13:16:38.473Z,40.71
2018-05-31T13:19:06.831Z,40.60
2018-05-31T13:21:35.145Z,41.55
2018-05-31T13:24:03.465Z,42.36
2018-05-31T13:26:32.126Z,42.31
2018-05-31T13:29:00.438Z,41.11
2018-05-31T13:31:28.866Z,40.16
2018-05-31T13:33:57.575Z,41.02
2018-05-31T13:36:25.882Z,40.65
2018-05-31T13:38:54.312Z,39.71
2018-05-31T13:41:22.670Z,40.62
2018-05-31T13:43:51.011Z,39.65
2018-05-31T13:46:19.344Z,39.03
2018-05-31T13:48:48.769Z,39.24
2018-05-31T13:51:17.252Z,40.22
2018-05-31T13:53:45.679Z,39.35
2018-05-31T13:56:14.029Z,39.86
2018-05-31T13:58:42.385Z,39.80
2018-05-31T14:01:10.692Z,40.16
2018-05-31T14:03:39.209Z,42.18
2018-05-31T14:06:07.598Z,41.31
2018-05-31T14:08:35.903Z,41.63
2018-05-31T14:11:04.267Z,41.16
2018-05-31T14:13:32.579Z,41.39
2018-05-31T14:16:00.901Z,40.83
2018-05-31T14:18:29.251Z,41.12
2018-05-31T14:20:57.644Z,41.64
2018-05-31T14:23:25.946Z,41.94
2018-05-31T14:25:54.771Z,41.36
2018-05-31T14:28:23.097Z,41.98
2018-05-31T14:30:51.484Z,42.61
2018-05-31T14:33:19.906Z,42.65
2018-05-31T14:35:48.359Z,41.92
2018-05-31T14:38:16.720Z,42.64
2018-05-31T14:40:45.839Z,41.04
2018-05-31T14:43:14.207Z,39.88
2018-05-31T14:45:42.492Z,40.17
2018-05-31T14:48:11.379Z,43.01
2018-05-31T14:50:39.700Z,42.50
2018-05-31T14:53:08.018Z,43.22
2018-05-31T14:55:38.079Z,43.71
2018-05-31T14:58:06.412Z,44.73
2018-05-31T15:00:34.714Z,43.59
2018-05-31T15:03:03.072Z,42.83
2018-05-31T15:05:31.361Z,43.44
2018-05-31T15:07:59.681Z,42.72
2018-05-31T15:10:28.407Z,44.29
2018-05-31T15:12:56.689Z,43.40
2018-05-31T15:15:25.064Z,44.00
2018-05-31T15:17:53.878Z,45.26
2018-05-31T15:20:22.245Z,44.85
2018-05-31T15:22:50.656Z,43.89
2018-05-31T15:25:19.080Z,42.44
2018-05-31T15:27:47.543Z,42.40
2018-05-31T15:30:16.078Z,42.09
2018-05-31T15:32:44.815Z,42.70
2018-05-31T15:35:13.308Z,43.48
2018-05-31T15:37:41.621Z,42.74
2018-05-31T15:40:10.766Z,43.11
2018-05-31T15:42:39.084Z,44.09
2018-05-31T15:45:07.390Z,44.41
2018-05-31T15:47:35.813Z,44.04
2018-05-31T15:50:04.190Z,43.52
2018-05-31T15:52:32.500Z,44.17
2018-05-31T15:55:00.926Z,44.12
2018-05-31T15:57:29.253Z,44.84
2018-05-31T15:59:57.566Z,45.03
2018-05-31T16:02:25.938Z,45.20
2018-05-31T16:04:54.303Z,44.53
2018-05-31T16:07:22.656Z,43.38
2018-05-31T16:09:51.125Z,43.58
2018-05-31T16:12:19.487Z,44.74
2018-05-31T16:14:47.838Z,42.81
2018-05-31T16:17:16.222Z,42.49
2018-05-31T16:19:44.803Z,43.64
2018-05-31T16:22:13.114Z,45.01
2018-05-31T16:24:41.495Z,46.27
2018-05-31T16:27:09.802Z,45.02
2018-05-31T16:29:38.101Z,45.77
2018-05-31T16:32:07.199Z,45.82
2018-05-31T16:34:35.509Z,46.09
2018-05-31T16:37:03.825Z,46.84
2018-05-31T16:39:33.343Z,46.88
2018-05-31T16:42:01.731Z,47.13
2018-05-31T16:44:30.032Z,48.03
2018-05-31T16:46:58.682Z,48.78
2018-05-31T16:49:26.981Z,49.78
2018-05-31T16:51:55.339Z,49.51
2018-05-31T16:54:23.916Z,50.25
2018-05-31T16:56:52.344Z,51.01
2018-05-31T16:59:20.737Z,50.59
2018-05-31T17:01:49.796Z,50.54
2018-05-31T17:04:18.253Z,50.41
2018-05-31T17:06:46.710Z,50.41
2018-05-31T17:09:15.627Z,51.11
2018-05-31T17:11:44.946Z,51.23
2018-05-31T17:14:13.240Z,51.13
2018-05-31T17:16:42.443Z,51.83
2018-05-31T17:19:10.783Z,52.81
2018-05-31T17:21:39.090Z,53.38
2018-05-31T17:24:07.809Z,53.96
2018-05-31T17:26:36.127Z,54.34
2018-05-31T17:29:04.506Z,55.63
2018-05-31T17:31:32.871Z,56.57
2018-05-31T17:34:01.196Z,56.46
2018-05-31T17:36:29.544Z,57.27
2018-05-31T17:38:58.059Z,58.07
2018-05-31T17:41:26.386Z,58.39
2018-05-31T17:43:54.804Z,58.38
2018-05-31T17:46:23.360Z,57.72
2018-05-31T17:48:51.681Z,56.96
2018-05-31T17:51:20.104Z,55.98
2018-05-31T17:53:49.287Z,55.33
2018-05-31T17:56:17.741Z,55.00
2018-05-31T17:58:46.246Z,55.02
2018-05-31T18:01:15.371Z,55.83
2018-05-31T18:03:43.676Z,55.66
2018-05-31T18:06:11.986Z,55.65
2018-05-31T18:08:40.426Z,55.99
2018-05-31T18:11:08.742Z,56.15
2018-05-31T18:13:37.077Z,56.63
2018-05-31T18:16:05.409Z,56.87
2018-05-31T18:18:33.790Z,57.12
2018-05-31T18:21:02.122Z,57.61
2018-05-31T18:23:30.524Z,57.69
2018-05-31T18:25:59.014Z,57.87
2018-05-31T18:28:27.436Z,58.53
2018-05-31T18:30:55.992Z,59.35
2018-05-31T18:33:24.402Z,59.45
2018-05-31T18:35:53.060Z,60.02
2018-05-31T18:38:21.399Z,59.77
2018-05-31T18:40:49.754Z,60.04
2018-05-31T18:43:19.856Z,60.28
2018-05-31T18:45:50.003Z,60.71
2018-05-31T18:48:18.381Z,60.54
2018-05-31T18:50:46.985Z,60.87
2018-05-31T18:53:16.290Z,60.92
2018-05-31T18:55:45.652Z,61.01
2018-05-31T18:58:14.149Z,61.26
2018-05-31T19:00:42.721Z,61.66
2018-05-31T19:03:11.018Z,62.26
2018-05-31T19:05:39.347Z,62.55
2018-05-31T19:08:07.693Z,62.72
2018-05-31T19:10:36.023Z,62.61
2018-05-31T19:13:10.477Z,63.01
2018-05-31T19:15:38.827Z,63.03
2018-05-31T19:18:07.134Z,63.28
2018-05-31T19:20:35.493Z,63.57
2018-05-31T19:23:03.810Z,63.44
2018-05-31T19:25:32.214Z,63.31
2018-05-31T19:28:00.644Z,63.80
2018-05-31T19:30:34.763Z,63.80
2018-05-31T19:33:03.425Z,63.79
2018-05-31T19:35:37.393Z,64.29
2018-05-31T19:38:05.780Z,64.21
2018-05-31T19:40:34.080Z,63.86
2018-05-31T19:43:08.081Z,63.73
2018-05-31T19:45:36.384Z,63.65
2018-05-31T19:48:04.702Z,63.45
2018-05-31T19:50:33.030Z,63.40
2018-05-31T19:53:06.949Z,63.33
2018-05-31T19:55:35.452Z,63.34
2018-05-31T19:58:09.318Z,63.43
2018-05-31T20:00:44.123Z,63.28
2018-05-31T20:03:18.064Z,63.40
2018-05-31T20:05:47.334Z,63.35
2018-05-31T20:08:15.662Z,63.30
2018-05-31T20:10:44.036Z,63.64
2018-05-31T20:13:12.392Z,63.52
2018-05-31T20:15:40.720Z,63.98
2018-05-31T20:18:09.142Z,63.92
2018-05-31T20:20:38.346Z,63.66
2018-05-31T20:23:06.655Z,63.55
2018-05-31T20:25:34.969Z,63.79
2018-05-31T20:28:03.301Z,63.94
2018-05-31T20:30:31.612Z,64.22
2018-05-31T20:32:59.928Z,63.92
2018-05-31T20:35:28.305Z,64.11
2018-05-31T20:37:56.699Z,64.21
2018-05-31T20:40:25.124Z,64.07
2018-05-31T20:42:53.613Z,64.37
2018-05-31T20:45:22.001Z,64.44
2018-05-31T20:47:50.436Z,64.40
2018-05-31T20:50:19.902Z,64.12
2018-05-31T20:52:48.292Z,64.22
2018-05-31T20:55:16.947Z,64.47
2018-05-31T20:57:45.430Z,64.18
2018-05-31T21:00:13.738Z,64.27
2018-05-31T21:02:43.238Z,64.30
2018-05-31T21:05:11.588Z,63.86
2018-05-31T21:07:39.907Z,64.11
2018-05-31T21:10:08.214Z,63.99
2018-05-31T21:12:36.539Z,63.74
2018-05-31T21:15:04.860Z,64.07
2018-05-31T21:17:33.167Z,64.09
2018-05-31T21:20:01.536Z,63.69
2018-05-31T21:22:29.813Z,63.75
2018-05-31T21:24:58.132Z,63.49
2018-05-31T21:27:26.597Z,63.31
2018-05-31T21:29:54.976Z,63.60
2018-05-31T21:32:23.286Z,63.29
2018-05-31T21:34:51.693Z,63.36
2018-05-31T21:37:20.039Z,63.39
2018-05-31T21:39:48.425Z,63.49
2018-05-31T21:42:16.879Z,63.46
2018-05-31T21:44:45.259Z,63.80
2018-05-31T21:47:13.668Z,64.02
2018-05-31T21:49:41.961Z,63.43
2018-05-31T21:52:10.314Z,63.27
2018-05-31T21:54:38.606Z,63.41
2018-05-31T21:57:06.938Z,63.44
2018-05-31T21:59:35.257Z,63.18
2018-05-31T22:02:03.698Z,63.28
2018-05-31T22:04:32.033Z,63.38
2018-05-31T22:07:00.335Z,63.40
2018-05-31T22:09:28.661Z,63.49
2018-05-31T22:11:58.273Z,63.64
2018-05-31T22:14:26.676Z,63.84
2018-05-31T22:16:55.061Z,63.94
2018-05-31T22:19:24.386Z,64.30
2018-05-31T22:21:52.940Z,64.45
2018-05-31T22:24:21.287Z,64.46
2018-05-31T22:26:50.667Z,64.70
2018-05-31T22:29:19.060Z,64.79
2018-05-31T22:31:47.550Z,64.62
2018-05-31T22:34:15.951Z,65.23
2018-05-31T22:36:44.236Z,64.68
2018-05-31T22:39:12.619Z,64.94
2018-05-31T22:41:41.111Z,65.37
2018-05-31T22:44:09.446Z,65.41
2018-05-31T22:46:37.769Z,65.30
2018-05-31T22:49:06.979Z,65.74
2018-05-31T22:51:35.317Z,65.17
2018-05-31T22:54:03.715Z,65.36
2018-05-31T22:56:32.054Z,65.51
2018-05-31T22:59:00.380Z,65.62
2018-05-31T23:01:29.328Z,65.83
2018-05-31T23:03:58.338Z,65.98
2018-05-31T23:06:26.758Z,66.42
2018-05-31T23:08:55.127Z,66.49
2018-05-31T23:11:23.684Z,66.94
2018-05-31T23:13:52.143Z,66.90
2018-05-31T23:16:20.536Z,66.94
2018-05-31T23:18:49.017Z,66.93
2018-05-31T23:21:17.389Z,66.93
2018-05-31T23:23:45.834Z,67.14
2018-05-31T23:26:14.834Z,67.36
2018-05-31T23:28:43.156Z,67.43
2018-05-31T23:31:11.418Z,67.52
2018-05-31T23:33:39.757Z,67.80
2018-05-31T23:36:08.072Z,67.90
2018-05-31T23:38:36.381Z,68.06
2018-05-31T23:41:04.723Z,68.11
2018-05-31T23:43:33.041Z,67.79
2018-05-31T23:46:01.366Z,67.93
2018-05-31T23:48:30.288Z,67.86
2018-05-31T23:50:58.590Z,67.80
2018-05-31T23:53:26.966Z,68.53
2018-05-31T23:55:55.594Z,68.13
2018-05-31T23:58:23.981Z,68.34
